createdAt,value
2017-10-01T00:02:18.806Z,71.90
2017-10-01T00:04:44.999Z,70.80
2017-10-01T00:07:11.177Z,71.50
2017-10-01T00:09:37.342Z,70.00
2017-10-01T00:12:03.577Z,70.00
2017-10-01T00:14:29.779Z,70.80
2017-10-01T00:16:56.003Z,71.00
2017-10-01T00:19:23.050Z,71.40
2017-10-01T00:21:49.276Z,70.70
2017-10-01T00:24:15.533Z,70.70
2017-10-01T00:26:41.773Z,70.90
2017-10-01T00:29:08.738Z,71.30
2017-10-01T00:31:34.989Z,71.30
2017-10-01T00:34:01.198Z,71.60
2017-10-01T00:36:27.458Z,71.40
2017-10-01T00:38:54.614Z,71.10
2017-10-01T00:41:20.903Z,71.20
2017-10-01T00:43:47.899Z,70.50
2017-10-01T00:46:14.939Z,70.80
2017-10-01T00:48:41.155Z,70.80
2017-10-01T00:51:07.371Z,70.60
2017-10-01T00:53:33.601Z,70.50
2017-10-01T00:56:00.548Z,70.70
2017-10-01T00:58:26.995Z,70.70
2017-10-01T01:00:53.299Z,71.00
2017-10-01T01:03:19.517Z,71.00
2017-10-01T01:05:45.756Z,71.00
2017-10-01T01:08:11.990Z,70.50
2017-10-01T01:10:38.203Z,70.30
2017-10-01T01:13:04.485Z,70.40
2017-10-01T01:15:30.683Z,70.30
2017-10-01T01:17:56.883Z,70.70
2017-10-01T01:20:24.025Z,71.10
2017-10-01T01:22:50.301Z,71.10
2017-10-01T01:25:16.563Z,70.40
2017-10-01T01:27:42.772Z,70.60
2017-10-01T01:30:09.264Z,71.20
2017-10-01T01:32:35.542Z,70.50
2017-10-01T01:35:01.754Z,70.40
2017-10-01T01:37:27.959Z,70.30
2017-10-01T01:39:54.282Z,70.60
2017-10-01T01:42:20.512Z,70.60
2017-10-01T01:44:46.712Z,70.80
2017-10-01T01:47:13.099Z,71.00
2017-10-01T01:49:39.406Z,71.10
2017-10-01T01:52:05.613Z,71.10
2017-10-01T01:54:31.820Z,71.50
2017-10-01T01:56:58.019Z,71.40
2017-10-01T01:59:24.964Z,71.40
2017-10-01T02:01:51.226Z,71.40
2017-10-01T02:04:17.436Z,71.30
2017-10-01T02:06:43.651Z,71.30
2017-10-01T02:09:09.839Z,72.00
2017-10-01T02:11:36.074Z,71.80
2017-10-01T02:14:02.403Z,72.90
2017-10-01T02:16:28.662Z,72.30
2017-10-01T02:18:54.883Z,71.90
2017-10-01T02:21:21.143Z,72.30
2017-10-01T02:23:47.346Z,72.60
2017-10-01T02:26:13.589Z,72.80
2017-10-01T02:28:40.730Z,72.60
2017-10-01T02:31:07.658Z,72.40
2017-10-01T02:33:33.861Z,72.40
2017-10-01T02:36:00.064Z,72.10
2017-10-01T02:38:26.359Z,71.90
2017-10-01T02:40:52.587Z,72.00
2017-10-01T02:43:18.865Z,72.00
2017-10-01T02:45:45.088Z,72.30
2017-10-01T02:48:11.327Z,71.40
2017-10-01T02:50:37.569Z,71.10
2017-10-01T02:53:04.526Z,71.00
2017-10-01T02:55:30.726Z,70.90
2017-10-01T02:57:57.780Z,71.30
2017-10-01T03:00:24.013Z,71.20
2017-10-01T03:02:50.284Z,72.00
2017-10-01T03:05:17.223Z,72.30
2017-10-01T03:07:44.216Z,71.80
2017-10-01T03:10:10.512Z,71.90
2017-10-01T03:12:36.808Z,71.00
2017-10-01T03:15:03.043Z,71.10
2017-10-01T03:17:29.261Z,71.20
2017-10-01T03:19:55.475Z,71.00
2017-10-01T03:22:21.753Z,71.50
2017-10-01T03:24:48.005Z,70.50
2017-10-01T03:27:14.244Z,70.90
2017-10-01T03:29:40.500Z,71.20
2017-10-01T03:32:07.655Z,71.30
2017-10-01T03:34:33.879Z,72.00
2017-10-01T03:37:00.133Z,71.40
2017-10-01T03:39:26.320Z,71.50
2017-10-01T03:41:52.544Z,72.00
2017-10-01T03:44:18.788Z,71.30
2017-10-01T03:46:45.063Z,71.30
2017-10-01T03:49:11.354Z,72.30
2017-10-01T03:51:37.647Z,71.70
2017-10-01T03:54:03.846Z,72.10
2017-10-01T03:56:30.062Z,71.80
2017-10-01T03:58:56.270Z,71.90
2017-10-01T04:01:22.512Z,72.00
2017-10-01T04:03:48.759Z,71.20
2017-10-01T04:06:15.107Z,72.10
2017-10-01T04:08:42.097Z,71.60
2017-10-01T04:11:08.305Z,71.50
2017-10-01T04:13:34.591Z,73.40
2017-10-01T04:16:00.902Z,72.00
2017-10-01T04:18:27.242Z,72.60
2017-10-01T04:20:53.468Z,71.90
2017-10-01T04:23:19.711Z,72.30
2017-10-01T04:25:46.635Z,72.50
2017-10-01T04:28:12.820Z,72.50
2017-10-01T04:30:39.018Z,72.00
2017-10-01T04:33:05.207Z,72.10
2017-10-01T04:35:31.369Z,72.40
2017-10-01T04:37:57.564Z,72.40
2017-10-01T04:40:23.735Z,73.20
2017-10-01T04:42:49.930Z,73.50
2017-10-01T04:45:16.092Z,73.40
2017-10-01T04:47:42.276Z,73.60
2017-10-01T04:50:08.513Z,74.80
2017-10-01T04:52:34.762Z,74.00
2017-10-01T04:55:00.972Z,73.00
2017-10-01T04:57:27.198Z,73.00
2017-10-01T04:59:53.397Z,73.00
2017-10-01T05:02:19.543Z,73.00
2017-10-01T05:04:45.770Z,73.00
2017-10-01T05:07:11.995Z,73.10
2017-10-01T05:09:38.183Z,73.00
2017-10-01T05:12:05.068Z,73.00
2017-10-01T05:14:31.285Z,73.00
2017-10-01T05:16:57.529Z,74.00
2017-10-01T05:19:24.463Z,73.00
2017-10-01T05:21:51.439Z,73.10
2017-10-01T05:24:17.704Z,73.00
2017-10-01T05:26:43.913Z,73.00
2017-10-01T05:29:10.228Z,74.00
2017-10-01T05:31:36.702Z,74.00
2017-10-01T05:34:02.951Z,74.00
2017-10-01T05:36:29.312Z,74.00
2017-10-01T05:38:55.608Z,74.00
2017-10-01T05:41:22.680Z,74.00
2017-10-01T05:43:48.843Z,74.00
2017-10-01T05:46:15.946Z,74.00
2017-10-01T05:48:42.365Z,74.00
2017-10-01T05:51:15.178Z,74.00
2017-10-01T05:53:41.572Z,74.00
2017-10-01T05:56:08.871Z,74.00
2017-10-01T05:58:35.119Z,74.00
2017-10-01T06:01:01.407Z,74.00
2017-10-01T06:03:27.647Z,73.90
2017-10-01T06:05:53.914Z,73.90
2017-10-01T06:08:22.725Z,73.90
2017-10-01T06:10:48.910Z,74.60
2017-10-01T06:13:15.478Z,74.00
2017-10-01T06:15:41.665Z,73.90
2017-10-01T06:18:08.020Z,74.00
2017-10-01T06:20:34.442Z,74.00
2017-10-01T06:23:00.773Z,74.00
2017-10-01T06:25:27.168Z,74.50
2017-10-01T06:27:53.559Z,74.70
2017-10-01T06:30:20.049Z,74.30
2017-10-01T06:32:46.349Z,74.10
2017-10-01T06:35:12.676Z,74.70
2017-10-01T06:37:38.964Z,73.10
2017-10-01T06:40:05.170Z,74.00
2017-10-01T06:42:31.515Z,73.10
2017-10-01T06:44:58.899Z,73.30
2017-10-01T06:47:25.176Z,73.00
2017-10-01T06:49:51.395Z,73.10
2017-10-01T06:52:17.736Z,73.40
2017-10-01T06:54:44.904Z,73.80
2017-10-01T06:57:11.361Z,74.70
2017-10-01T06:59:37.730Z,73.50
2017-10-01T07:02:04.004Z,73.20
2017-10-01T07:04:30.490Z,73.40
2017-10-01T07:06:57.206Z,73.30
2017-10-01T07:09:28.847Z,73.30
2017-10-01T07:11:55.543Z,73.20
2017-10-01T07:14:21.971Z,73.30
2017-10-01T07:16:50.007Z,73.30
2017-10-01T07:19:16.469Z,73.20
2017-10-01T07:21:43.240Z,73.30
2017-10-01T07:27:13.028Z,73.30
2017-10-01T07:29:39.573Z,73.40
2017-10-01T07:32:05.904Z,73.40
2017-10-01T07:34:33.905Z,73.40
2017-10-01T07:37:01.248Z,73.50
2017-10-01T07:39:27.713Z,72.70
2017-10-01T07:41:53.990Z,73.60
2017-10-01T07:44:20.871Z,73.50
2017-10-01T07:46:47.138Z,72.70
2017-10-01T07:49:13.398Z,73.50
2017-10-01T07:51:40.195Z,71.10
2017-10-01T07:54:06.722Z,71.20
2017-10-01T07:56:33.021Z,72.10
2017-10-01T08:01:33.558Z,71.10
2017-10-01T08:03:59.958Z,71.10
2017-10-01T08:06:27.043Z,71.50
2017-10-01T08:08:53.355Z,70.80
2017-10-01T08:11:19.727Z,70.60
2017-10-01T08:13:45.949Z,69.70
2017-10-01T08:16:12.284Z,69.30
2017-10-01T08:18:38.557Z,69.20
2017-10-01T08:21:04.891Z,69.90
2017-10-01T08:23:33.389Z,69.00
2017-10-01T08:25:59.688Z,69.00
2017-10-01T08:28:26.126Z,68.70
2017-10-01T08:30:52.364Z,68.60
2017-10-01T08:33:18.615Z,67.50
2017-10-01T08:35:44.923Z,67.60
2017-10-01T08:38:11.202Z,67.40
2017-10-01T08:40:37.500Z,67.60
2017-10-01T08:43:03.752Z,68.10
2017-10-01T08:45:30.878Z,67.10
2017-10-01T08:47:57.317Z,67.00
2017-10-01T08:50:23.721Z,67.20
2017-10-01T08:52:49.997Z,66.90
2017-10-01T08:55:17.082Z,66.70
2017-10-01T08:57:43.448Z,67.30
2017-10-01T09:00:09.990Z,65.90
2017-10-01T09:02:36.787Z,65.90
2017-10-01T09:05:03.373Z,64.50
2017-10-01T09:07:30.156Z,64.70
2017-10-01T09:09:56.610Z,64.70
2017-10-01T09:12:22.872Z,64.70
2017-10-01T09:14:49.167Z,64.90
2017-10-01T09:17:15.855Z,64.20
2017-10-01T09:19:42.929Z,63.40
2017-10-01T09:22:09.857Z,63.40
2017-10-01T09:27:19.994Z,64.50
2017-10-01T09:29:47.220Z,64.30
2017-10-01T09:32:14.535Z,64.30
2017-10-01T09:34:42.130Z,64.60
2017-10-01T09:37:08.570Z,61.70
2017-10-01T09:39:34.919Z,61.70
2017-10-01T09:42:02.864Z,62.10
2017-10-01T09:44:30.864Z,62.30
2017-10-01T09:46:57.671Z,62.70
2017-10-01T09:49:24.133Z,61.80
2017-10-01T09:51:50.830Z,58.40
2017-10-01T10:02:55.586Z,58.40
2017-10-01T10:05:21.829Z,57.20
2017-10-01T10:07:48.111Z,58.20
2017-10-01T10:10:14.422Z,58.30
2017-10-01T10:12:40.628Z,57.40
2017-10-01T10:15:07.644Z,56.70
2017-10-01T10:17:34.177Z,56.60
2017-10-01T10:20:00.483Z,56.60
2017-10-01T10:22:26.788Z,56.20
2017-10-01T10:24:53.786Z,57.50
2017-10-01T10:27:20.467Z,55.30
2017-10-01T10:29:47.492Z,55.50
2017-10-01T10:32:14.444Z,53.20
2017-10-01T10:34:40.835Z,53.20
2017-10-01T10:37:08.147Z,55.60
2017-10-01T10:39:34.532Z,55.70
2017-10-01T10:42:00.829Z,53.90
2017-10-01T10:44:27.125Z,54.20
2017-10-01T10:46:53.497Z,54.20
2017-10-01T10:49:19.763Z,53.70
2017-10-01T10:51:46.044Z,55.40
2017-10-01T10:54:12.591Z,55.00
2017-10-01T10:56:38.983Z,54.70
2017-10-01T10:59:05.269Z,55.00
2017-10-01T11:01:31.650Z,54.50
2017-10-01T11:03:59.085Z,55.20
2017-10-01T11:06:25.793Z,55.30
2017-10-01T11:08:52.091Z,54.60
2017-10-01T11:11:18.451Z,54.50
2017-10-01T11:13:58.571Z,54.90
2017-10-01T11:16:24.872Z,53.70
2017-10-01T11:18:52.090Z,54.50
2017-10-01T11:21:20.584Z,53.50
2017-10-01T11:23:46.836Z,52.40
2017-10-01T11:26:13.124Z,51.60
2017-10-01T11:28:40.542Z,49.90
2017-10-01T11:34:11.526Z,47.10
2017-10-01T11:36:38.139Z,48.80
2017-10-01T11:39:06.681Z,48.70
2017-10-01T11:41:33.601Z,47.10
2017-10-01T11:44:00.800Z,48.70
2017-10-01T11:46:27.062Z,47.10
2017-10-01T11:48:54.015Z,46.30
2017-10-01T11:51:22.775Z,44.20
2017-10-01T11:53:49.857Z,44.00
2017-10-01T11:56:16.173Z,44.00
2017-10-01T12:01:45.597Z,42.50
2017-10-01T12:04:42.268Z,44.30
2017-10-01T12:07:09.725Z,42.40
2017-10-01T12:09:38.825Z,42.40
2017-10-01T12:12:05.214Z,42.60
2017-10-01T12:14:31.422Z,41.70
2017-10-01T12:16:57.586Z,42.40
2017-10-01T12:19:27.873Z,43.20
2017-10-01T12:21:54.532Z,42.80
2017-10-01T12:27:05.312Z,43.70
2017-10-01T12:32:34.215Z,43.50
2017-10-01T12:35:01.200Z,44.50
2017-10-01T12:37:51.611Z,44.50
2017-10-01T12:40:20.971Z,44.50
2017-10-01T12:42:47.734Z,43.70
2017-10-01T12:45:16.238Z,44.50
2017-10-01T12:53:49.877Z,44.90
2017-10-01T12:56:33.821Z,45.20
2017-10-01T12:59:00.610Z,45.20
2017-10-01T13:01:33.576Z,44.50
2017-10-01T13:04:00.094Z,44.70
2017-10-01T13:06:26.577Z,46.00
2017-10-01T13:08:54.724Z,45.00
2017-10-01T13:11:21.091Z,44.50
2017-10-01T13:13:48.344Z,45.90
2017-10-01T13:22:20.544Z,45.20
2017-10-01T13:36:47.968Z,46.40
2017-10-01T13:39:14.263Z,45.60
2017-10-01T13:41:40.456Z,44.20
2017-10-01T13:44:08.664Z,44.30
2017-10-01T13:46:35.663Z,43.20
2017-10-01T13:52:04.741Z,43.40
2017-10-01T13:54:31.105Z,43.60
2017-10-01T13:56:58.418Z,43.90
2017-10-01T14:02:17.288Z,43.80
2017-10-01T14:04:43.695Z,43.40
2017-10-01T14:07:10.206Z,45.00
2017-10-01T14:09:36.518Z,43.70
2017-10-01T14:12:11.841Z,42.60
2017-10-01T14:14:39.938Z,42.10
2017-10-01T14:17:11.924Z,40.80
2017-10-01T14:22:31.249Z,42.20
2017-10-01T14:24:58.417Z,40.50
2017-10-01T14:30:17.723Z,41.10
2017-10-01T14:35:48.294Z,41.10
2017-10-01T14:38:15.028Z,42.20
2017-10-01T14:40:41.407Z,40.80
2017-10-01T14:43:07.605Z,40.90
2017-10-01T14:45:33.876Z,41.50
2017-10-01T14:48:00.115Z,41.00
2017-10-01T14:50:26.275Z,42.00
2017-10-01T14:52:52.490Z,42.40
2017-10-01T14:55:19.400Z,42.00
2017-10-01T14:57:45.572Z,42.00
2017-10-01T15:00:11.795Z,42.70
2017-10-01T15:02:38.020Z,42.70
2017-10-01T15:05:04.555Z,41.80
2017-10-01T15:07:30.762Z,41.70
2017-10-01T15:09:56.972Z,42.20
2017-10-01T15:12:23.271Z,43.20
2017-10-01T15:14:49.489Z,42.40
2017-10-01T15:17:15.753Z,42.60
2017-10-01T15:19:42.239Z,42.00
2017-10-01T15:22:08.542Z,42.10
2017-10-01T15:24:34.780Z,41.20
2017-10-01T15:27:01.066Z,41.90
2017-10-01T15:29:27.281Z,42.90
2017-10-01T15:31:53.707Z,42.30
2017-10-01T15:34:20.437Z,41.50
2017-10-01T15:36:46.742Z,42.70
2017-10-01T15:39:13.450Z,48.50
2017-10-01T15:41:39.624Z,48.70
2017-10-01T15:44:07.803Z,51.10
2017-10-01T15:46:33.975Z,50.70
2017-10-01T15:49:06.196Z,50.70
2017-10-01T15:51:32.531Z,51.50
2017-10-01T15:53:58.786Z,52.00
2017-10-01T15:56:24.987Z,52.40
2017-10-01T15:58:51.328Z,53.10
2017-10-01T16:01:17.974Z,52.70
2017-10-01T16:03:44.659Z,52.10
2017-10-01T16:06:11.304Z,52.70
2017-10-01T16:08:38.178Z,52.70
2017-10-01T16:11:05.715Z,53.10
2017-10-01T16:13:32.365Z,54.00
2017-10-01T16:15:58.961Z,53.90
2017-10-01T16:18:27.182Z,54.20
2017-10-01T16:20:53.659Z,54.20
2017-10-01T16:23:21.535Z,53.80
2017-10-01T16:25:47.929Z,54.70
2017-10-01T16:28:14.912Z,55.00
2017-10-01T16:30:41.231Z,55.10
2017-10-01T16:33:08.073Z,55.00
2017-10-01T16:35:35.158Z,55.20
2017-10-01T16:38:01.488Z,54.50
2017-10-01T16:40:27.687Z,54.00
2017-10-01T16:42:53.969Z,56.40
2017-10-01T16:45:20.232Z,56.40
2017-10-01T16:47:46.657Z,56.50
2017-10-01T16:50:12.822Z,56.40
2017-10-01T16:52:38.981Z,56.50
2017-10-01T16:55:05.218Z,56.10
2017-10-01T16:57:31.424Z,56.10
2017-10-01T16:59:57.822Z,56.40
2017-10-01T17:02:24.030Z,56.70
2017-10-01T17:04:50.542Z,57.80
2017-10-01T17:07:17.539Z,58.50
2017-10-01T17:09:43.704Z,58.50
2017-10-01T17:12:09.902Z,58.90
2017-10-01T17:14:36.445Z,58.40
2017-10-01T17:17:02.675Z,58.60
2017-10-01T17:19:29.042Z,59.10
2017-10-01T17:21:56.104Z,60.70
2017-10-01T17:24:22.663Z,61.50
2017-10-01T17:26:49.267Z,61.30
2017-10-01T17:29:15.578Z,61.00
2017-10-01T17:31:41.778Z,61.50
2017-10-01T17:34:08.007Z,61.50
2017-10-01T17:36:34.233Z,61.80
2017-10-01T17:39:00.420Z,61.80
2017-10-01T17:41:26.581Z,62.30
2017-10-01T17:43:52.865Z,62.90
2017-10-01T17:46:19.105Z,63.10
2017-10-01T17:48:45.342Z,63.50
2017-10-01T17:51:11.948Z,63.30
2017-10-01T17:53:38.284Z,63.30
2017-10-01T17:56:04.405Z,63.20
2017-10-01T17:58:30.606Z,63.40
2017-10-01T18:00:57.823Z,63.60
2017-10-01T18:03:24.068Z,63.70
2017-10-01T18:05:50.280Z,63.60
2017-10-01T18:08:16.819Z,64.30
2017-10-01T18:10:43.245Z,63.70
2017-10-01T18:13:09.559Z,64.10
2017-10-01T18:15:35.789Z,63.90
2017-10-01T18:18:02.815Z,64.50
2017-10-01T18:20:29.015Z,64.20
2017-10-01T18:22:55.677Z,64.50
2017-10-01T18:25:21.911Z,65.00
2017-10-01T18:27:48.083Z,64.90
2017-10-01T18:30:14.267Z,64.80
2017-10-01T18:32:40.836Z,64.80
2017-10-01T18:35:07.415Z,64.70
2017-10-01T18:37:34.436Z,64.70
2017-10-01T18:40:00.595Z,64.80
2017-10-01T18:42:27.818Z,65.50
2017-10-01T18:44:54.109Z,64.70
2017-10-01T18:47:20.507Z,64.70
2017-10-01T18:49:47.229Z,64.70
2017-10-01T18:52:13.425Z,64.60
2017-10-01T18:54:39.582Z,64.60
2017-10-01T18:57:06.780Z,64.70
2017-10-01T18:59:33.220Z,64.60
2017-10-01T19:01:59.483Z,64.60
2017-10-01T19:04:26.449Z,64.40
2017-10-01T19:06:52.747Z,64.40
2017-10-01T19:09:18.986Z,64.40
2017-10-01T19:11:45.253Z,64.60
2017-10-01T19:14:11.638Z,65.30
2017-10-01T19:16:37.843Z,65.20
2017-10-01T19:19:04.001Z,65.00
2017-10-01T19:21:30.989Z,64.80
2017-10-01T19:23:57.232Z,64.70
2017-10-01T19:26:23.581Z,64.60
2017-10-01T19:28:49.862Z,64.70
2017-10-01T19:31:17.249Z,64.80
2017-10-01T19:33:45.556Z,64.80
2017-10-01T19:36:11.892Z,64.30
2017-10-01T19:38:39.894Z,64.60
2017-10-01T19:41:06.091Z,64.60
2017-10-01T19:43:33.621Z,65.00
2017-10-01T19:46:00.904Z,65.50
2017-10-01T19:48:27.328Z,65.10
2017-10-01T19:50:53.811Z,65.50
2017-10-01T19:53:20.820Z,64.90
2017-10-01T19:55:47.095Z,65.20
2017-10-01T19:58:13.301Z,65.50
2017-10-01T20:00:39.497Z,65.50
2017-10-01T20:03:05.772Z,65.60
2017-10-01T20:05:32.071Z,65.10
2017-10-01T20:07:58.279Z,65.50
2017-10-01T20:10:24.572Z,65.80
2017-10-01T20:12:50.747Z,65.10
2017-10-01T20:15:16.941Z,65.20
2017-10-01T20:17:43.160Z,65.10
2017-10-01T20:20:09.717Z,65.50
2017-10-01T20:22:36.063Z,65.20
2017-10-01T20:25:02.295Z,65.10
2017-10-01T20:27:28.519Z,65.20
2017-10-01T20:29:55.450Z,65.50
2017-10-01T20:32:22.459Z,65.50
2017-10-01T20:34:48.967Z,65.30
2017-10-01T20:37:15.207Z,65.30
2017-10-01T20:39:41.397Z,65.60
2017-10-01T20:42:07.623Z,65.40
2017-10-01T20:44:34.006Z,65.30
2017-10-01T20:47:00.366Z,65.70
2017-10-01T20:49:26.572Z,65.30
2017-10-01T20:51:52.790Z,65.60
2017-10-01T20:54:19.103Z,65.40
2017-10-01T20:56:46.079Z,65.40
2017-10-01T20:59:13.526Z,65.30
2017-10-01T21:01:39.863Z,65.50
2017-10-01T21:04:08.851Z,65.20
2017-10-01T21:06:35.083Z,65.20
2017-10-01T21:09:01.399Z,65.10
2017-10-01T21:11:27.657Z,65.40
2017-10-01T21:13:53.835Z,65.50
2017-10-01T21:16:21.009Z,64.60
2017-10-01T21:18:47.277Z,64.60
2017-10-01T21:21:14.200Z,64.20
2017-10-01T21:23:40.361Z,64.20
2017-10-01T21:26:06.654Z,64.20
2017-10-01T21:28:32.796Z,64.10
2017-10-01T21:31:00.739Z,64.90
2017-10-01T21:33:27.547Z,65.00
2017-10-01T21:35:53.737Z,64.80
2017-10-01T21:38:21.102Z,65.00
2017-10-01T21:40:47.284Z,64.90
2017-10-01T21:43:22.255Z,64.70
2017-10-01T21:45:48.563Z,64.80
2017-10-01T21:48:14.886Z,65.00
2017-10-01T21:50:41.127Z,64.30
2017-10-01T21:53:10.660Z,64.20
2017-10-01T21:55:39.016Z,63.60
2017-10-01T21:58:05.292Z,64.20
2017-10-01T22:00:40.296Z,63.50
2017-10-01T22:03:06.485Z,64.70
2017-10-01T22:05:43.242Z,64.30
2017-10-01T22:08:09.407Z,64.30
2017-10-01T22:10:35.615Z,64.40
2017-10-01T22:13:01.878Z,63.90
2017-10-01T22:15:30.098Z,64.30
2017-10-01T22:17:56.348Z,63.50
2017-10-01T22:20:22.571Z,64.60
2017-10-01T22:22:48.823Z,64.40
2017-10-01T22:25:14.987Z,64.30
2017-10-01T22:27:42.238Z,64.00
2017-10-01T22:30:08.459Z,63.90
2017-10-01T22:32:34.718Z,64.30
2017-10-01T22:35:00.848Z,64.50
2017-10-01T22:37:27.018Z,64.10
2017-10-01T22:39:53.137Z,63.70
2017-10-01T22:42:19.266Z,63.90
2017-10-01T22:44:45.424Z,65.00
2017-10-01T22:47:11.688Z,64.40
2017-10-01T22:49:37.883Z,64.20
2017-10-01T22:52:06.387Z,64.00
2017-10-01T22:54:32.628Z,64.40
2017-10-01T22:56:58.909Z,64.50
2017-10-01T22:59:25.299Z,65.10
2017-10-01T23:01:51.897Z,66.20
2017-10-01T23:04:18.208Z,66.10
2017-10-01T23:06:44.403Z,66.10
2017-10-01T23:09:10.602Z,67.10
2017-10-01T23:11:36.776Z,66.90
2017-10-01T23:14:02.951Z,67.30
2017-10-01T23:16:29.186Z,67.90
2017-10-01T23:18:55.427Z,67.90
2017-10-01T23:21:21.648Z,67.70
2017-10-01T23:23:47.981Z,68.10
2017-10-01T23:26:14.151Z,68.00
2017-10-01T23:28:40.360Z,68.10
2017-10-01T23:31:06.583Z,66.90
2017-10-01T23:33:32.968Z,67.90
2017-10-01T23:35:59.288Z,67.50
2017-10-01T23:38:25.597Z,67.70
2017-10-01T23:40:51.862Z,67.40
2017-10-01T23:43:18.209Z,67.30
2017-10-01T23:45:44.438Z,67.30
2017-10-01T23:48:10.616Z,67.10
2017-10-01T23:50:36.869Z,66.80
2017-10-01T23:53:03.124Z,66.50
2017-10-01T23:55:29.351Z,66.60
2017-10-01T23:57:55.555Z,66.80
